Terminal Aerodrome Forecast
Issued by NWS

Home | Current Version | Previous Version | Text Only | Print | Product List | Glossary On
Versions: 1 2 3 4 5 6 7 8 9 10 11 12 13 14 15 16 17 18 19 20 21 22 23 24 25
000
FTUS41 KBTV 310500
TAFPBG
TAF
KPBG 310537Z 3106/0106 17005KT P6SM BKN120
      TEMPO 3110/3114 5SM -SHRA BKN040
     FM311400 20010G20KT P6SM BKN040
     FM311900 20010G20KT P6SM VCSH BKN035
     FM010000 20008KT P6SM OVC030=

USA.gov is the U.S. government's official web portal to all federal, state and local government web resources and services.